KEAT/EAT METAR and TAF weather

Enter ICAO airport designator
Station Type Date Time Source
KEAT METAR 2022/07/03 13:55 UTC NOAA

KEAT 031355Z AUTO 32008KT 10SM CLR 19/10 A2978 RMK AO2 SLP074 T01890100


Station Type Date Time Source
KEAT Decoded METAR 2022/07/03 13:55 UTC NOAA

WENATCHEE PANGBORN MEMO, WA, United States (KEAT) 47-24N 120-12W 377M
Jul 03, 2022 - 09:55 AM EDT / 2022.07.03 1355 UTC
Wind: from the NW (320 degrees) at 9 MPH (8 KT):0
Visibility: 10 mile(s):0
Sky conditions: clear
Temperature: 66.0 F (18.9 C)
Dew Point: 50.0 F (10.0 C)
Relative Humidity: 56%
Pressure (altimeter): 29.78 in. Hg (1008 hPa)
ob: KEAT 031355Z AUTO 32008KT 10SM CLR 19/10 A2978 RMK AO2 SLP074 T01890100
cycle: 14

Station Type Date Time Source
KEAT TAF 2022/07/03 12:40 UTC NOAA

TAF KEAT 031138Z 0312/0412 30009KT P6SM VCSH SCT090
FM031700 30009KT P6SM -SHRA VCTS SCT040CB BKN080
FM031900 VRB08G16KT 5SM TSRA BKN040CB OVC070
FM032200 28008KT P6SM VCSH SCT030 BKN070
FM040100 30014G22KT P6SM SCT100
FM040400 31013KT P6SM SCT200

Example: see airport list